sensor_id;sensor_type;location;lat;lon;timestamp;P1;durP1;ratioP1;P2;durP2;ratioP2
25349;SDS011;13302;48.796;11.978;2023-01-19T00:00:58;5.47;;;4.97;;
25349;SDS011;13302;48.796;11.978;2023-01-19T00:03:45;5.33;;;4.93;;
25349;SDS011;13302;48.796;11.978;2023-01-19T00:06:32;4.77;;;4.40;;
25349;SDS011;13302;48.796;11.978;2023-01-19T00:09:19;5.20;;;4.77;;
25349;SDS011;13302;48.796;11.978;2023-01-19T00:12:07;6.07;;;5.57;;
25349;SDS011;13302;48.796;11.978;2023-01-19T00:14:54;5.73;;;5.30;;
25349;SDS011;13302;48.796;11.978;2023-01-19T00:17:41;5.60;;;5.20;;
25349;SDS011;13302;48.796;11.978;2023-01-19T00:20:28;6.10;;;5.50;;
25349;SDS011;13302;48.796;11.978;2023-01-19T00:23:17;7.40;;;5.67;;
25349;SDS011;13302;48.796;11.978;2023-01-19T00:26:05;5.27;;;4.87;;
25349;SDS011;13302;48.796;11.978;2023-01-19T00:28:54;5.70;;;5.30;;
25349;SDS011;13302;48.796;11.978;2023-01-19T00:31:42;5.37;;;4.97;;
25349;SDS011;13302;48.796;11.978;2023-01-19T00:34:29;5.53;;;5.03;;
25349;SDS011;13302;48.796;11.978;2023-01-19T00:37:22;6.20;;;5.77;;
25349;SDS011;13302;48.796;11.978;2023-01-19T00:40:09;5.07;;;4.67;;
25349;SDS011;13302;48.796;11.978;2023-01-19T00:42:56;5.97;;;5.37;;
25349;SDS011;13302;48.796;11.978;2023-01-19T00:45:44;5.20;;;4.80;;
25349;SDS011;13302;48.796;11.978;2023-01-19T00:48:31;5.60;;;4.97;;
25349;SDS011;13302;48.796;11.978;2023-01-19T00:51:18;5.50;;;5.10;;
25349;SDS011;13302;48.796;11.978;2023-01-19T00:54:05;5.73;;;5.20;;
25349;SDS011;13302;48.796;11.978;2023-01-19T00:56:55;5.73;;;5.23;;
25349;SDS011;13302;48.796;11.978;2023-01-19T00:59:42;5.80;;;5.37;;
25349;SDS011;13302;48.796;11.978;2023-01-19T01:02:29;5.63;;;5.13;;
25349;SDS011;13302;48.796;11.978;2023-01-19T01:05:17;6.00;;;5.50;;
25349;SDS011;13302;48.796;11.978;2023-01-19T01:08:04;6.00;;;5.50;;
25349;SDS011;13302;48.796;11.978;2023-01-19T01:10:51;5.40;;;4.90;;
25349;SDS011;13302;48.796;11.978;2023-01-19T01:13:38;6.30;;;5.70;;
25349;SDS011;13302;48.796;11.978;2023-01-19T01:16:25;6.43;;;5.93;;
25349;SDS011;13302;48.796;11.978;2023-01-19T01:19:12;7.20;;;6.50;;
25349;SDS011;13302;48.796;11.978;2023-01-19T01:21:59;6.23;;;5.73;;
25349;SDS011;13302;48.796;11.978;2023-01-19T01:24:46;6.57;;;6.00;;
25349;SDS011;13302;48.796;11.978;2023-01-19T01:27:33;6.53;;;5.93;;
25349;SDS011;13302;48.796;11.978;2023-01-19T01:30:20;6.73;;;6.10;;
25349;SDS011;13302;48.796;11.978;2023-01-19T01:33:08;6.33;;;5.83;;
25349;SDS011;13302;48.796;11.978;2023-01-19T01:35:57;6.53;;;5.93;;
25349;SDS011;13302;48.796;11.978;2023-01-19T01:38:44;6.40;;;5.90;;
25349;SDS011;13302;48.796;11.978;2023-01-19T01:41:31;6.77;;;6.20;;
25349;SDS011;13302;48.796;11.978;2023-01-19T01:47:44;6.83;;;6.30;;
25349;SDS011;13302;48.796;11.978;2023-01-19T01:50:34;6.13;;;5.50;;
25349;SDS011;13302;48.796;11.978;2023-01-19T01:53:48;7.70;;;7.00;;
25349;SDS011;13302;48.796;11.978;2023-01-19T01:56:49;7.20;;;6.50;;
25349;SDS011;13302;48.796;11.978;2023-01-19T01:59:43;6.60;;;6.00;;
25349;SDS011;13302;48.796;11.978;2023-01-19T02:02:33;6.90;;;6.30;;
25349;SDS011;13302;48.796;11.978;2023-01-19T02:05:37;7.07;;;6.40;;
25349;SDS011;13302;48.796;11.978;2023-01-19T02:08:25;7.50;;;6.60;;
25349;SDS011;13302;48.796;11.978;2023-01-19T02:11:36;7.53;;;6.90;;
25349;SDS011;13302;48.796;11.978;2023-01-19T02:14:42;8.17;;;7.30;;
25349;SDS011;13302;48.796;11.978;2023-01-19T02:17:29;6.97;;;6.37;;
25349;SDS011;13302;48.796;11.978;2023-01-19T02:20:16;7.97;;;7.10;;
25349;SDS011;13302;48.796;11.978;2023-01-19T02:23:12;8.70;;;6.10;;
25349;SDS011;13302;48.796;11.978;2023-01-19T02:26:04;7.03;;;6.43;;
25349;SDS011;13302;48.796;11.978;2023-01-19T02:29:00;7.60;;;7.00;;
25349;SDS011;13302;48.796;11.978;2023-01-19T02:31:49;7.30;;;6.60;;
25349;SDS011;13302;48.796;11.978;2023-01-19T02:34:36;8.53;;;7.10;;
25349;SDS011;13302;48.796;11.978;2023-01-19T02:37:23;8.67;;;7.30;;
25349;SDS011;13302;48.796;11.978;2023-01-19T02:40:14;7.37;;;6.43;;
25349;SDS011;13302;48.796;11.978;2023-01-19T02:43:05;8.43;;;7.53;;
25349;SDS011;13302;48.796;11.978;2023-01-19T02:45:54;8.13;;;7.33;;
25349;SDS011;13302;48.796;11.978;2023-01-19T02:48:41;7.47;;;6.87;;
25349;SDS011;13302;48.796;11.978;2023-01-19T02:51:29;8.27;;;7.47;;
25349;SDS011;13302;48.796;11.978;2023-01-19T03:00:32;7.73;;;6.40;;
25349;SDS011;13302;48.796;11.978;2023-01-19T03:03:31;7.80;;;6.77;;
25349;SDS011;13302;48.796;11.978;2023-01-19T03:12:49;7.23;;;6.57;;
25349;SDS011;13302;48.796;11.978;2023-01-19T03:15:55;7.60;;;6.90;;
25349;SDS011;13302;48.796;11.978;2023-01-19T03:18:50;8.33;;;6.93;;
25349;SDS011;13302;48.796;11.978;2023-01-19T03:21:40;8.00;;;7.20;;
25349;SDS011;13302;48.796;11.978;2023-01-19T03:24:32;8.23;;;7.40;;
25349;SDS011;13302;48.796;11.978;2023-01-19T03:27:30;9.10;;;8.30;;
25349;SDS011;13302;48.796;11.978;2023-01-19T03:30:27;7.97;;;7.27;;
25349;SDS011;13302;48.796;11.978;2023-01-19T03:33:24;8.20;;;7.40;;
25349;SDS011;13302;48.796;11.978;2023-01-19T03:36:17;8.33;;;7.37;;
25349;SDS011;13302;48.796;11.978;2023-01-19T03:39:12;8.47;;;7.60;;
25349;SDS011;13302;48.796;11.978;2023-01-19T03:42:04;8.83;;;8.03;;
25349;SDS011;13302;48.796;11.978;2023-01-19T03:44:54;7.23;;;6.63;;
25349;SDS011;13302;48.796;11.978;2023-01-19T03:47:43;8.23;;;7.43;;
25349;SDS011;13302;48.796;11.978;2023-01-19T03:50:30;8.47;;;7.73;;
25349;SDS011;13302;48.796;11.978;2023-01-19T03:53:19;8.57;;;7.87;;
25349;SDS011;13302;48.796;11.978;2023-01-19T03:56:14;8.83;;;7.90;;
25349;SDS011;13302;48.796;11.978;2023-01-19T03:59:04;8.63;;;7.47;;
25349;SDS011;13302;48.796;11.978;2023-01-19T04:01:53;7.87;;;7.17;;
25349;SDS011;13302;48.796;11.978;2023-01-19T04:04:40;9.03;;;8.10;;
25349;SDS011;13302;48.796;11.978;2023-01-19T04:07:27;8.90;;;8.20;;
25349;SDS011;13302;48.796;11.978;2023-01-19T04:10:15;8.63;;;7.77;;
25349;SDS011;13302;48.796;11.978;2023-01-19T04:13:03;8.73;;;7.90;;
25349;SDS011;13302;48.796;11.978;2023-01-19T04:15:50;8.73;;;7.93;;
25349;SDS011;13302;48.796;11.978;2023-01-19T04:18:37;9.20;;;8.40;;
25349;SDS011;13302;48.796;11.978;2023-01-19T04:21:26;9.73;;;8.80;;
25349;SDS011;13302;48.796;11.978;2023-01-19T04:24:13;9.20;;;8.27;;
25349;SDS011;13302;48.796;11.978;2023-01-19T04:27:00;9.50;;;8.57;;
25349;SDS011;13302;48.796;11.978;2023-01-19T04:29:47;9.43;;;8.60;;
25349;SDS011;13302;48.796;11.978;2023-01-19T04:32:34;8.97;;;8.17;;
25349;SDS011;13302;48.796;11.978;2023-01-19T04:35:21;8.87;;;7.97;;
25349;SDS011;13302;48.796;11.978;2023-01-19T04:38:08;9.67;;;8.67;;
25349;SDS011;13302;48.796;11.978;2023-01-19T04:40:54;9.67;;;8.60;;
25349;SDS011;13302;48.796;11.978;2023-01-19T04:43:41;9.63;;;8.83;;
25349;SDS011;13302;48.796;11.978;2023-01-19T04:46:28;9.70;;;8.63;;
25349;SDS011;13302;48.796;11.978;2023-01-19T04:49:15;9.77;;;8.43;;
25349;SDS011;13302;48.796;11.978;2023-01-19T04:52:03;9.40;;;8.60;;
25349;SDS011;13302;48.796;11.978;2023-01-19T04:54:51;9.60;;;8.60;;
25349;SDS011;13302;48.796;11.978;2023-01-19T04:57:38;9.10;;;8.20;;
25349;SDS011;13302;48.796;11.978;2023-01-19T05:00:25;9.37;;;8.47;;
25349;SDS011;13302;48.796;11.978;2023-01-19T05:03:12;8.93;;;8.13;;
25349;SDS011;13302;48.796;11.978;2023-01-19T05:05:59;9.07;;;8.27;;
25349;SDS011;13302;48.796;11.978;2023-01-19T05:08:46;8.90;;;8.10;;
25349;SDS011;13302;48.796;11.978;2023-01-19T05:11:34;8.03;;;7.33;;
25349;SDS011;13302;48.796;11.978;2023-01-19T05:14:21;8.77;;;7.93;;
25349;SDS011;13302;48.796;11.978;2023-01-19T05:17:08;7.87;;;7.07;;
25349;SDS011;13302;48.796;11.978;2023-01-19T05:19:55;9.43;;;7.43;;
25349;SDS011;13302;48.796;11.978;2023-01-19T05:22:51;7.83;;;7.13;;
25349;SDS011;13302;48.796;11.978;2023-01-19T05:25:39;8.53;;;7.73;;
25349;SDS011;13302;48.796;11.978;2023-01-19T05:28:29;8.53;;;7.73;;
25349;SDS011;13302;48.796;11.978;2023-01-19T05:31:17;7.80;;;7.03;;
25349;SDS011;13302;48.796;11.978;2023-01-19T05:34:05;8.43;;;7.67;;
25349;SDS011;13302;48.796;11.978;2023-01-19T05:36:52;8.13;;;7.33;;
25349;SDS011;13302;48.796;11.978;2023-01-19T05:39:39;7.90;;;7.20;;
25349;SDS011;13302;48.796;11.978;2023-01-19T05:42:26;8.00;;;7.20;;
25349;SDS011;13302;48.796;11.978;2023-01-19T05:45:13;8.40;;;7.70;;
25349;SDS011;13302;48.796;11.978;2023-01-19T05:48:00;8.83;;;7.37;;
25349;SDS011;13302;48.796;11.978;2023-01-19T05:50:47;8.13;;;7.37;;
25349;SDS011;13302;48.796;11.978;2023-01-19T05:53:35;7.30;;;6.70;;
25349;SDS011;13302;48.796;11.978;2023-01-19T05:56:22;8.50;;;7.70;;
25349;SDS011;13302;48.796;11.978;2023-01-19T05:59:09;8.50;;;7.70;;
25349;SDS011;13302;48.796;11.978;2023-01-19T06:01:56;8.07;;;7.27;;
25349;SDS011;13302;48.796;11.978;2023-01-19T06:04:45;7.87;;;7.17;;
25349;SDS011;13302;48.796;11.978;2023-01-19T06:07:32;7.67;;;7.03;;
25349;SDS011;13302;48.796;11.978;2023-01-19T06:10:19;7.63;;;6.93;;
25349;SDS011;13302;48.796;11.978;2023-01-19T06:13:06;7.60;;;6.90;;
25349;SDS011;13302;48.796;11.978;2023-01-19T06:15:58;8.70;;;7.90;;
25349;SDS011;13302;48.796;11.978;2023-01-19T06:18:46;8.70;;;7.90;;
25349;SDS011;13302;48.796;11.978;2023-01-19T06:21:33;9.37;;;8.47;;
25349;SDS011;13302;48.796;11.978;2023-01-19T06:24:20;8.60;;;7.67;;
25349;SDS011;13302;48.796;11.978;2023-01-19T06:27:08;8.97;;;8.17;;
25349;SDS011;13302;48.796;11.978;2023-01-19T06:29:56;10.27;;;8.73;;
25349;SDS011;13302;48.796;11.978;2023-01-19T06:32:43;9.10;;;8.30;;
25349;SDS011;13302;48.796;11.978;2023-01-19T06:35:30;9.30;;;8.50;;
25349;SDS011;13302;48.796;11.978;2023-01-19T06:38:18;8.93;;;8.10;;
25349;SDS011;13302;48.796;11.978;2023-01-19T06:41:05;9.90;;;8.93;;
25349;SDS011;13302;48.796;11.978;2023-01-19T06:43:52;10.17;;;9.17;;
25349;SDS011;13302;48.796;11.978;2023-01-19T06:46:39;9.87;;;8.97;;
25349;SDS011;13302;48.796;11.978;2023-01-19T06:49:26;9.57;;;8.53;;
25349;SDS011;13302;48.796;11.978;2023-01-19T06:52:13;9.43;;;8.53;;
25349;SDS011;13302;48.796;11.978;2023-01-19T06:55:02;9.20;;;8.13;;
25349;SDS011;13302;48.796;11.978;2023-01-19T06:57:56;9.10;;;8.33;;
25349;SDS011;13302;48.796;11.978;2023-01-19T07:00:44;9.17;;;8.37;;
25349;SDS011;13302;48.796;11.978;2023-01-19T07:03:31;8.93;;;8.13;;
25349;SDS011;13302;48.796;11.978;2023-01-19T07:06:19;9.93;;;8.90;;
25349;SDS011;13302;48.796;11.978;2023-01-19T07:09:06;9.63;;;8.43;;
25349;SDS011;13302;48.796;11.978;2023-01-19T07:11:55;10.37;;;8.67;;
25349;SDS011;13302;48.796;11.978;2023-01-19T07:14:42;9.07;;;8.17;;
25349;SDS011;13302;48.796;11.978;2023-01-19T07:17:30;9.33;;;8.43;;
25349;SDS011;13302;48.796;11.978;2023-01-19T07:20:17;8.87;;;8.07;;
25349;SDS011;13302;48.796;11.978;2023-01-19T07:23:05;9.27;;;8.47;;
25349;SDS011;13302;48.796;11.978;2023-01-19T07:25:52;9.30;;;8.37;;
25349;SDS011;13302;48.796;11.978;2023-01-19T07:28:39;10.10;;;8.50;;
25349;SDS011;13302;48.796;11.978;2023-01-19T07:31:27;9.30;;;8.40;;
25349;SDS011;13302;48.796;11.978;2023-01-19T07:34:14;9.47;;;8.57;;
25349;SDS011;13302;48.796;11.978;2023-01-19T07:37:01;9.27;;;8.37;;
25349;SDS011;13302;48.796;11.978;2023-01-19T07:39:48;9.13;;;8.23;;
25349;SDS011;13302;48.796;11.978;2023-01-19T07:42:35;8.87;;;8.10;;
25349;SDS011;13302;48.796;11.978;2023-01-19T07:45:22;9.17;;;8.17;;
25349;SDS011;13302;48.796;11.978;2023-01-19T07:48:09;9.83;;;8.60;;
25349;SDS011;13302;48.796;11.978;2023-01-19T07:50:59;8.87;;;8.07;;
25349;SDS011;13302;48.796;11.978;2023-01-19T07:53:50;8.97;;;8.10;;
25349;SDS011;13302;48.796;11.978;2023-01-19T07:56:37;9.33;;;8.43;;
25349;SDS011;13302;48.796;11.978;2023-01-19T07:59:27;8.73;;;7.97;;
25349;SDS011;13302;48.796;11.978;2023-01-19T08:02:16;9.03;;;8.10;;
25349;SDS011;13302;48.796;11.978;2023-01-19T08:05:03;8.83;;;8.03;;
25349;SDS011;13302;48.796;11.978;2023-01-19T08:07:51;9.03;;;8.13;;
25349;SDS011;13302;48.796;11.978;2023-01-19T08:10:39;9.13;;;8.33;;
25349;SDS011;13302;48.796;11.978;2023-01-19T08:13:26;9.17;;;8.37;;
25349;SDS011;13302;48.796;11.978;2023-01-19T08:16:13;9.17;;;8.37;;
25349;SDS011;13302;48.796;11.978;2023-01-19T08:19:00;9.53;;;8.47;;
25349;SDS011;13302;48.796;11.978;2023-01-19T08:21:47;9.17;;;8.27;;
25349;SDS011;13302;48.796;11.978;2023-01-19T08:24:34;8.73;;;7.93;;
25349;SDS011;13302;48.796;11.978;2023-01-19T08:27:21;9.07;;;8.20;;
25349;SDS011;13302;48.796;11.978;2023-01-19T08:30:08;8.23;;;7.53;;
25349;SDS011;13302;48.796;11.978;2023-01-19T08:32:56;8.13;;;7.33;;
25349;SDS011;13302;48.796;11.978;2023-01-19T08:35:50;8.97;;;8.07;;
25349;SDS011;13302;48.796;11.978;2023-01-19T08:38:38;8.50;;;7.70;;
25349;SDS011;13302;48.796;11.978;2023-01-19T08:41:29;7.77;;;7.07;;
25349;SDS011;13302;48.796;11.978;2023-01-19T08:44:16;8.70;;;7.90;;
25349;SDS011;13302;48.796;11.978;2023-01-19T08:47:03;7.83;;;7.13;;
25349;SDS011;13302;48.796;11.978;2023-01-19T08:49:50;10.40;;;8.57;;
25349;SDS011;13302;48.796;11.978;2023-01-19T08:52:36;8.60;;;7.70;;
25349;SDS011;13302;48.796;11.978;2023-01-19T08:55:24;8.13;;;7.23;;
25349;SDS011;13302;48.796;11.978;2023-01-19T08:58:12;8.27;;;7.50;;
25349;SDS011;13302;48.796;11.978;2023-01-19T09:00:59;7.90;;;7.07;;
25349;SDS011;13302;48.796;11.978;2023-01-19T09:03:48;8.30;;;7.40;;
25349;SDS011;13302;48.796;11.978;2023-01-19T09:06:35;7.77;;;6.97;;
25349;SDS011;13302;48.796;11.978;2023-01-19T09:09:22;7.90;;;7.20;;
25349;SDS011;13302;48.796;11.978;2023-01-19T09:12:09;8.00;;;7.37;;
25349;SDS011;13302;48.796;11.978;2023-01-19T09:14:56;7.67;;;6.97;;
25349;SDS011;13302;48.796;11.978;2023-01-19T09:17:43;7.37;;;6.70;;
25349;SDS011;13302;48.796;11.978;2023-01-19T09:20:30;7.27;;;6.57;;
25349;SDS011;13302;48.796;11.978;2023-01-19T09:23:19;7.13;;;6.43;;
25349;SDS011;13302;48.796;11.978;2023-01-19T09:26:06;6.80;;;6.17;;
25349;SDS011;13302;48.796;11.978;2023-01-19T09:28:53;7.30;;;6.60;;
25349;SDS011;13302;48.796;11.978;2023-01-19T09:31:40;7.40;;;6.53;;
25349;SDS011;13302;48.796;11.978;2023-01-19T09:34:29;7.27;;;6.43;;
25349;SDS011;13302;48.796;11.978;2023-01-19T09:37:16;6.80;;;6.20;;
25349;SDS011;13302;48.796;11.978;2023-01-19T09:40:04;7.03;;;6.40;;
25349;SDS011;13302;48.796;11.978;2023-01-19T09:42:54;6.70;;;6.10;;
25349;SDS011;13302;48.796;11.978;2023-01-19T09:48:42;6.73;;;6.13;;
25349;SDS011;13302;48.796;11.978;2023-01-19T09:51:35;7.07;;;6.37;;
25349;SDS011;13302;48.796;11.978;2023-01-19T09:57:30;6.60;;;5.67;;
25349;SDS011;13302;48.796;11.978;2023-01-19T10:00:18;6.10;;;5.60;;
25349;SDS011;13302;48.796;11.978;2023-01-19T10:03:15;5.87;;;5.27;;
25349;SDS011;13302;48.796;11.978;2023-01-19T10:06:03;6.43;;;5.83;;
25349;SDS011;13302;48.796;11.978;2023-01-19T10:08:54;6.27;;;5.67;;
25349;SDS011;13302;48.796;11.978;2023-01-19T10:11:53;5.67;;;5.27;;
25349;SDS011;13302;48.796;11.978;2023-01-19T10:14:56;5.43;;;5.03;;
25349;SDS011;13302;48.796;11.978;2023-01-19T10:21:18;7.60;;;5.07;;
25349;SDS011;13302;48.796;11.978;2023-01-19T10:24:24;5.77;;;5.13;;
25349;SDS011;13302;48.796;11.978;2023-01-19T10:27:15;5.47;;;4.93;;
25349;SDS011;13302;48.796;11.978;2023-01-19T10:30:03;5.13;;;4.73;;
25349;SDS011;13302;48.796;11.978;2023-01-19T10:32:54;5.17;;;4.73;;
25349;SDS011;13302;48.796;11.978;2023-01-19T10:35:40;4.80;;;4.40;;
25349;SDS011;13302;48.796;11.978;2023-01-19T10:38:28;5.60;;;5.10;;
25349;SDS011;13302;48.796;11.978;2023-01-19T10:41:25;5.33;;;4.73;;
25349;SDS011;13302;48.796;11.978;2023-01-19T10:44:24;5.23;;;4.73;;
25349;SDS011;13302;48.796;11.978;2023-01-19T10:47:16;4.73;;;4.27;;
25349;SDS011;13302;48.796;11.978;2023-01-19T10:53:18;4.80;;;4.40;;
25349;SDS011;13302;48.796;11.978;2023-01-19T10:56:20;4.60;;;4.30;;
25349;SDS011;13302;48.796;11.978;2023-01-19T10:59:34;4.43;;;4.13;;
25349;SDS011;13302;48.796;11.978;2023-01-19T11:02:30;4.60;;;4.30;;
25349;SDS011;13302;48.796;11.978;2023-01-19T11:08:27;4.60;;;3.83;;
25349;SDS011;13302;48.796;11.978;2023-01-19T11:11:16;5.03;;;4.10;;
25349;SDS011;13302;48.796;11.978;2023-01-19T11:14:09;4.97;;;4.50;;
25349;SDS011;13302;48.796;11.978;2023-01-19T11:16:59;4.80;;;4.40;;
25349;SDS011;13302;48.796;11.978;2023-01-19T11:19:57;4.83;;;4.40;;
25349;SDS011;13302;48.796;11.978;2023-01-19T11:22:46;4.60;;;4.30;;
25349;SDS011;13302;48.796;11.978;2023-01-19T11:25:34;4.90;;;4.17;;
25349;SDS011;13302;48.796;11.978;2023-01-19T11:28:33;3.90;;;3.60;;
25349;SDS011;13302;48.796;11.978;2023-01-19T11:34:26;5.00;;;4.60;;
25349;SDS011;13302;48.796;11.978;2023-01-19T11:40:08;4.37;;;4.07;;
25349;SDS011;13302;48.796;11.978;2023-01-19T11:42:59;4.13;;;3.83;;
25349;SDS011;13302;48.796;11.978;2023-01-19T11:45:47;4.30;;;3.97;;
25349;SDS011;13302;48.796;11.978;2023-01-19T11:48:35;4.07;;;3.77;;
25349;SDS011;13302;48.796;11.978;2023-01-19T11:58:14;4.47;;;4.07;;
25349;SDS011;13302;48.796;11.978;2023-01-19T12:01:04;4.93;;;4.40;;
25349;SDS011;13302;48.796;11.978;2023-01-19T12:04:05;5.13;;;4.37;;
25349;SDS011;13302;48.796;11.978;2023-01-19T12:07:13;5.33;;;4.80;;
25349;SDS011;13302;48.796;11.978;2023-01-19T12:10:24;5.63;;;5.13;;
25349;SDS011;13302;48.796;11.978;2023-01-19T12:13:17;4.77;;;4.33;;
25349;SDS011;13302;48.796;11.978;2023-01-19T12:16:11;4.57;;;4.17;;
25349;SDS011;13302;48.796;11.978;2023-01-19T12:19:17;4.37;;;4.07;;
25349;SDS011;13302;48.796;11.978;2023-01-19T12:22:11;4.20;;;3.90;;
25349;SDS011;13302;48.796;11.978;2023-01-19T12:25:02;3.97;;;3.67;;
25349;SDS011;13302;48.796;11.978;2023-01-19T12:27:59;3.90;;;3.60;;
25349;SDS011;13302;48.796;11.978;2023-01-19T12:30:46;3.37;;;3.07;;
25349;SDS011;13302;48.796;11.978;2023-01-19T12:33:37;3.57;;;3.27;;
25349;SDS011;13302;48.796;11.978;2023-01-19T12:39:16;4.47;;;3.83;;
25349;SDS011;13302;48.796;11.978;2023-01-19T12:42:14;4.90;;;3.90;;
25349;SDS011;13302;48.796;11.978;2023-01-19T12:45:04;4.60;;;4.20;;
25349;SDS011;13302;48.796;11.978;2023-01-19T12:47:54;5.93;;;5.33;;
25349;SDS011;13302;48.796;11.978;2023-01-19T12:50:41;6.07;;;5.47;;
25349;SDS011;13302;48.796;11.978;2023-01-19T12:53:32;5.33;;;4.93;;
25349;SDS011;13302;48.796;11.978;2023-01-19T12:56:19;4.97;;;4.57;;
25349;SDS011;13302;48.796;11.978;2023-01-19T12:59:24;3.90;;;3.60;;
25349;SDS011;13302;48.796;11.978;2023-01-19T13:08:20;4.50;;;4.20;;
25349;SDS011;13302;48.796;11.978;2023-01-19T13:11:16;4.10;;;3.80;;
25349;SDS011;13302;48.796;11.978;2023-01-19T13:16:54;4.97;;;4.57;;
25349;SDS011;13302;48.796;11.978;2023-01-19T13:19:46;4.40;;;4.10;;
25349;SDS011;13302;48.796;11.978;2023-01-19T13:25:36;4.30;;;3.93;;
25349;SDS011;13302;48.796;11.978;2023-01-19T13:28:29;5.83;;;3.63;;
25349;SDS011;13302;48.796;11.978;2023-01-19T13:31:19;3.40;;;3.20;;
25349;SDS011;13302;48.796;11.978;2023-01-19T13:34:14;3.83;;;3.20;;
25349;SDS011;13302;48.796;11.978;2023-01-19T13:37:13;3.00;;;2.80;;
25349;SDS011;13302;48.796;11.978;2023-01-19T13:40:04;2.97;;;2.77;;
25349;SDS011;13302;48.796;11.978;2023-01-19T13:42:51;3.40;;;3.13;;
25349;SDS011;13302;48.796;11.978;2023-01-19T13:45:39;4.00;;;3.30;;
25349;SDS011;13302;48.796;11.978;2023-01-19T13:48:27;3.27;;;3.07;;
25349;SDS011;13302;48.796;11.978;2023-01-19T13:51:17;3.03;;;2.93;;
25349;SDS011;13302;48.796;11.978;2023-01-19T13:54:04;3.60;;;3.30;;
25349;SDS011;13302;48.796;11.978;2023-01-19T13:57:01;3.30;;;3.10;;
25349;SDS011;13302;48.796;11.978;2023-01-19T14:00:06;3.97;;;3.67;;
25349;SDS011;13302;48.796;11.978;2023-01-19T14:02:58;4.77;;;3.93;;
25349;SDS011;13302;48.796;11.978;2023-01-19T14:05:48;4.10;;;3.70;;
25349;SDS011;13302;48.796;11.978;2023-01-19T14:08:39;4.00;;;3.70;;
25349;SDS011;13302;48.796;11.978;2023-01-19T14:11:26;4.13;;;3.80;;
25349;SDS011;13302;48.796;11.978;2023-01-19T14:14:20;3.80;;;3.50;;
25349;SDS011;13302;48.796;11.978;2023-01-19T14:17:17;4.27;;;3.97;;
25349;SDS011;13302;48.796;11.978;2023-01-19T14:20:26;4.40;;;3.97;;
25349;SDS011;13302;48.796;11.978;2023-01-19T14:29:34;3.70;;;3.40;;
25349;SDS011;13302;48.796;11.978;2023-01-19T14:32:23;3.87;;;3.57;;
25349;SDS011;13302;48.796;11.978;2023-01-19T14:35:21;3.93;;;3.50;;
25349;SDS011;13302;48.796;11.978;2023-01-19T14:38:10;3.83;;;3.63;;
25349;SDS011;13302;48.796;11.978;2023-01-19T14:40:59;3.60;;;3.37;;
25349;SDS011;13302;48.796;11.978;2023-01-19T14:43:46;4.27;;;3.33;;
25349;SDS011;13302;48.796;11.978;2023-01-19T14:46:33;4.13;;;3.73;;
25349;SDS011;13302;48.796;11.978;2023-01-19T14:49:28;3.90;;;3.60;;
25349;SDS011;13302;48.796;11.978;2023-01-19T14:52:25;4.43;;;4.03;;
25349;SDS011;13302;48.796;11.978;2023-01-19T14:55:19;4.33;;;4.03;;
25349;SDS011;13302;48.796;11.978;2023-01-19T14:58:14;4.20;;;3.90;;
25349;SDS011;13302;48.796;11.978;2023-01-19T15:01:02;4.60;;;4.20;;
25349;SDS011;13302;48.796;11.978;2023-01-19T15:03:50;4.70;;;4.30;;
25349;SDS011;13302;48.796;11.978;2023-01-19T15:06:38;4.03;;;3.73;;
25349;SDS011;13302;48.796;11.978;2023-01-19T15:09:27;4.43;;;4.13;;
25349;SDS011;13302;48.796;11.978;2023-01-19T15:12:14;4.13;;;3.77;;
25349;SDS011;13302;48.796;11.978;2023-01-19T15:15:03;4.10;;;3.80;;
25349;SDS011;13302;48.796;11.978;2023-01-19T15:17:50;5.17;;;4.23;;
25349;SDS011;13302;48.796;11.978;2023-01-19T15:20:42;4.73;;;4.23;;
25349;SDS011;13302;48.796;11.978;2023-01-19T15:23:29;4.03;;;3.57;;
25349;SDS011;13302;48.796;11.978;2023-01-19T15:26:18;4.50;;;4.10;;
25349;SDS011;13302;48.796;11.978;2023-01-19T15:29:15;4.23;;;3.83;;
25349;SDS011;13302;48.796;11.978;2023-01-19T15:32:10;3.90;;;3.70;;
25349;SDS011;13302;48.796;11.978;2023-01-19T15:34:58;4.33;;;4.03;;
25349;SDS011;13302;48.796;11.978;2023-01-19T15:37:46;3.73;;;3.53;;
25349;SDS011;13302;48.796;11.978;2023-01-19T15:40:34;4.53;;;3.80;;
25349;SDS011;13302;48.796;11.978;2023-01-19T15:43:21;4.13;;;3.83;;
25349;SDS011;13302;48.796;11.978;2023-01-19T15:46:08;4.03;;;3.73;;
25349;SDS011;13302;48.796;11.978;2023-01-19T15:48:59;5.13;;;3.93;;
25349;SDS011;13302;48.796;11.978;2023-01-19T15:51:46;4.47;;;4.00;;
25349;SDS011;13302;48.796;11.978;2023-01-19T15:54:33;4.13;;;3.80;;
25349;SDS011;13302;48.796;11.978;2023-01-19T15:57:20;5.17;;;3.83;;
25349;SDS011;13302;48.796;11.978;2023-01-19T16:00:08;4.33;;;4.00;;
25349;SDS011;13302;48.796;11.978;2023-01-19T16:02:55;4.57;;;4.13;;
25349;SDS011;13302;48.796;11.978;2023-01-19T16:05:43;3.77;;;3.47;;
25349;SDS011;13302;48.796;11.978;2023-01-19T16:08:32;3.97;;;3.67;;
25349;SDS011;13302;48.796;11.978;2023-01-19T16:11:19;4.00;;;3.70;;
25349;SDS011;13302;48.796;11.978;2023-01-19T16:14:06;4.67;;;4.27;;
25349;SDS011;13302;48.796;11.978;2023-01-19T16:16:53;3.63;;;3.33;;
25349;SDS011;13302;48.796;11.978;2023-01-19T16:19:40;4.20;;;3.80;;
25349;SDS011;13302;48.796;11.978;2023-01-19T16:22:28;4.43;;;4.10;;
25349;SDS011;13302;48.796;11.978;2023-01-19T16:25:15;4.73;;;3.80;;
25349;SDS011;13302;48.796;11.978;2023-01-19T16:28:02;4.17;;;3.87;;
25349;SDS011;13302;48.796;11.978;2023-01-19T16:30:49;4.10;;;3.80;;
25349;SDS011;13302;48.796;11.978;2023-01-19T16:33:37;4.13;;;3.83;;
25349;SDS011;13302;48.796;11.978;2023-01-19T16:36:25;5.93;;;4.13;;
25349;SDS011;13302;48.796;11.978;2023-01-19T16:39:16;4.40;;;3.97;;
25349;SDS011;13302;48.796;11.978;2023-01-19T16:42:04;4.30;;;3.90;;
25349;SDS011;13302;48.796;11.978;2023-01-19T16:44:51;4.17;;;3.77;;
25349;SDS011;13302;48.796;11.978;2023-01-19T16:47:38;4.63;;;4.23;;
25349;SDS011;13302;48.796;11.978;2023-01-19T16:50:25;4.60;;;4.20;;
25349;SDS011;13302;48.796;11.978;2023-01-19T16:53:12;4.33;;;4.03;;
25349;SDS011;13302;48.796;11.978;2023-01-19T16:56:03;4.90;;;4.50;;
25349;SDS011;13302;48.796;11.978;2023-01-19T16:58:52;5.20;;;4.70;;
25349;SDS011;13302;48.796;11.978;2023-01-19T17:01:40;4.90;;;4.50;;
25349;SDS011;13302;48.796;11.978;2023-01-19T17:04:29;3.80;;;3.60;;
25349;SDS011;13302;48.796;11.978;2023-01-19T17:07:16;4.30;;;4.00;;
25349;SDS011;13302;48.796;11.978;2023-01-19T17:10:05;4.43;;;4.13;;
25349;SDS011;13302;48.796;11.978;2023-01-19T17:12:52;4.70;;;4.30;;
25349;SDS011;13302;48.796;11.978;2023-01-19T17:15:39;5.60;;;4.13;;
25349;SDS011;13302;48.796;11.978;2023-01-19T17:18:27;4.40;;;4.10;;
25349;SDS011;13302;48.796;11.978;2023-01-19T17:21:17;4.90;;;4.50;;
25349;SDS011;13302;48.796;11.978;2023-01-19T17:24:05;4.60;;;4.20;;
25349;SDS011;13302;48.796;11.978;2023-01-19T17:26:52;5.20;;;4.60;;
25349;SDS011;13302;48.796;11.978;2023-01-19T17:29:39;4.50;;;4.20;;
25349;SDS011;13302;48.796;11.978;2023-01-19T17:32:26;4.80;;;4.40;;
25349;SDS011;13302;48.796;11.978;2023-01-19T17:35:15;5.00;;;4.50;;
25349;SDS011;13302;48.796;11.978;2023-01-19T17:38:02;4.60;;;4.20;;
25349;SDS011;13302;48.796;11.978;2023-01-19T17:40:49;5.33;;;4.83;;
25349;SDS011;13302;48.796;11.978;2023-01-19T17:43:36;4.70;;;4.30;;
25349;SDS011;13302;48.796;11.978;2023-01-19T17:46:24;4.57;;;4.17;;
25349;SDS011;13302;48.796;11.978;2023-01-19T17:49:12;4.77;;;4.37;;
25349;SDS011;13302;48.796;11.978;2023-01-19T17:51:59;5.00;;;4.60;;